Time;durP1;ratioP1;P1;durP2;ratioP2;P2;SDS_P1;SDS_P2;PMS_P1;PMS_P2;Temp;Humidity;BMP_temperature;BMP_pressure;BME280_temperature;BME280_humidity;BME280_pressure;Samples;Min_cycle;Max_cycle;Signal;HPM_P1;HPM_P2
2023/04/06 00:03:37;;;;;;;7.93;6.70;;;;;;;5.17;40.06;99672.28;10335835;28;20812;-69
2023/04/06 00:08:39;;;;;;;7.40;6.60;;;;;;;6.88;38.80;99573.22;10338860;28;20321;-69
2023/04/06 00:13:41;;;;;;;9.70;7.23;;;;;;;7.34;37.48;99671.19;10339784;28;20209;-69
2023/04/06 00:18:42;;;;;;;8.60;7.70;;;;;;;7.22;38.02;99654.72;10343107;28;20217;-69
2023/04/06 00:23:44;;;;;;;9.87;8.57;;;;;;;6.81;38.29;99675.94;10349037;28;20219;-69
2023/04/06 00:28:46;;;;;;;10.30;8.77;;;;;;;7.42;37.53;99625.09;10335110;28;21288;-69
2023/04/06 00:33:48;;;;;;;13.40;8.50;;;;;;;7.65;37.36;99614.59;10341793;28;20209;-69
2023/04/06 00:38:50;;;;;;;9.67;8.43;;;;;;;7.15;38.10;99633.25;10343848;28;20216;-69
2023/04/06 00:43:51;;;;;;;9.03;7.50;;;;;;;7.06;37.66;99636.91;10341162;28;20237;-69
2023/04/06 00:48:53;;;;;;;7.67;6.77;;;;;;;7.50;36.95;99604.63;10342875;28;20623;-69
2023/04/06 00:53:55;;;;;;;10.07;8.97;;;;;;;6.88;38.53;99631.72;10335201;28;20214;-69
2023/04/06 00:58:56;;;;;;;9.23;8.17;;;;;;;7.11;38.17;99625.78;10339357;28;20254;-69
2023/04/06 01:03:58;;;;;;;9.87;8.07;;;;;;;7.82;36.97;99589.59;10342780;28;20241;-69
2023/04/06 01:09:00;;;;;;;10.57;9.00;;;;;;;7.64;37.55;99592.44;10347570;28;20235;-69
2023/04/06 01:14:03;;;;;;;9.83;8.70;;;;;;;6.21;38.75;99667.06;10327255;28;20209;-69
2023/04/06 01:19:09;;;;;;;14.53;8.50;;;;;;;6.30;38.76;99645.84;10341483;28;20281;-69
2023/04/06 01:24:11;;;;;;;9.37;8.10;;;;;;;6.33;38.56;99632.22;10337513;28;20276;-69
2023/04/06 01:29:13;;;;;;;12.80;10.13;;;;;;;6.89;37.84;99590.84;10333607;28;20226;-69
2023/04/06 01:34:15;;;;;;;16.97;13.73;;;;;;;7.08;37.83;99596.84;10335985;28;20213;-69
2023/04/06 01:39:16;;;;;;;13.00;10.90;;;;;;;5.92;38.66;99647.97;10334630;28;20642;-69
2023/04/06 01:44:19;;;;;;;25.50;17.63;;;;;;;6.68;38.26;99607.22;10328673;28;20502;-69
2023/04/06 01:49:20;;;;;;;19.97;15.43;;;;;;;5.75;39.64;99639.88;10336765;28;20356;-69
2023/04/06 01:54:22;;;;;;;14.00;11.07;;;;;;;6.73;38.50;99590.78;10334470;28;20209;-69
2023/04/06 01:59:24;;;;;;;11.37;9.10;;;;;;;5.31;39.27;99630.09;10339625;28;20237;-69
2023/04/06 02:04:26;;;;;;;11.57;8.07;;;;;;;4.22;41.97;99651.28;10333416;28;20703;-69
2023/04/06 02:09:27;;;;;;;8.00;7.00;;;;;;;5.06;41.12;99617.59;10333000;28;20295;-69
2023/04/06 02:14:29;;;;;;;9.00;6.40;;;;;;;5.25;40.95;99598.88;10334527;28;20205;-69
2023/04/06 02:19:31;;;;;;;7.37;6.13;;;;;;;6.53;39.31;99553.03;10333389;28;20240;-69
2023/04/06 02:24:33;;;;;;;7.70;6.10;;;;;;;5.81;40.18;99615.38;10336535;28;20235;-69
2023/04/06 02:29:35;;;;;;;7.20;6.33;;;;;;;5.74;39.94;99598.41;10337426;28;20233;-69
2023/04/06 02:34:36;;;;;;;7.73;6.90;;;;;;;4.90;40.93;99628.91;10329493;28;20208;-69
2023/04/06 02:39:38;;;;;;;8.40;6.90;;;;;;;4.35;41.80;99624.50;10337779;28;20591;-69
2023/04/06 02:44:40;;;;;;;8.63;6.70;;;;;;;5.18;40.66;99599.63;10334389;28;20342;-69
2023/04/06 02:49:41;;;;;;;8.47;7.03;;;;;;;5.43;40.60;99579.44;10338410;28;20236;-69
2023/04/06 02:54:43;;;;;;;7.40;6.53;;;;;;;3.94;42.32;99630.09;10328999;28;20219;-69
2023/04/06 02:59:45;;;;;;;8.37;6.73;;;;;;;4.11;41.85;99612.59;10343385;28;20245;-69
2023/04/06 03:04:47;;;;;;;6.93;5.90;;;;;;;2.80;43.52;99637.84;10338664;28;20332;-69
2023/04/06 03:09:49;;;;;;;7.33;6.10;;;;;;;3.27;44.07;99574.53;10341051;28;20866;-69
2023/04/06 03:14:51;;;;;;;8.93;6.60;;;;;;;2.26;44.65;99618.81;10347675;28;20206;-69
2023/04/06 03:19:52;;;;;;;6.60;5.50;;;;;;;2.11;45.02;99605.16;10343620;28;20250;-69
2023/04/06 03:24:54;;;;;;;6.77;5.80;;;;;;;2.60;44.84;99575.38;10342115;28;20285;-70
2023/04/06 03:29:56;;;;;;;6.60;5.63;;;;;;;2.94;43.75;99553.84;10337553;28;20250;-69
2023/04/06 03:34:58;;;;;;;9.10;6.77;;;;;;;5.37;41.16;99522.50;10337413;28;20208;-69
2023/04/06 03:39:59;;;;;;;7.57;6.20;;;;;;;5.77;40.57;99568.03;10333152;28;20234;-70
2023/04/06 03:45:01;;;;;;;9.07;6.47;;;;;;;6.16;40.04;99551.59;10333104;28;20224;-69
2023/04/06 03:50:03;;;;;;;9.80;7.40;;;;;;;5.30;40.86;99635.53;10353645;28;20228;-69
2023/04/06 03:55:05;;;;;;;9.77;7.60;;;;;;;5.43;41.07;99633.31;10355057;28;20212;-70
2023/04/06 04:00:07;;;;;;;9.77;8.30;;;;;;;4.86;41.36;99654.91;10354259;28;20240;-74
2023/04/06 04:05:09;;;;;;;9.97;8.10;;;;;;;5.17;41.53;99646.56;10338361;28;20343;-69
2023/04/06 04:10:11;;;;;;;9.83;8.03;;;;;;;5.66;41.38;99624.91;10344487;28;20624;-70
2023/04/06 04:15:13;;;;;;;10.17;8.43;;;;;;;5.09;42.18;99644.66;10345102;28;20694;-70
2023/04/06 04:20:16;;;;;;;14.73;10.90;;;;;;;5.29;41.65;99658.59;10347485;28;20237;-70
2023/04/06 04:25:17;;;;;;;27.30;20.27;;;;;;;4.89;42.96;99682.91;10337199;28;20241;-69
2023/04/06 04:30:19;;;;;;;21.23;18.20;;;;;;;5.03;42.83;99647.94;10347843;28;20730;-70
2023/04/06 04:35:21;;;;;;;33.93;24.43;;;;;;;4.49;43.19;99686.78;10351731;28;20600;-70
2023/04/06 04:40:22;;;;;;;29.37;21.13;;;;;;;4.92;43.00;99648.97;10341146;28;20224;-70
2023/04/06 04:45:24;;;;;;;17.10;14.33;;;;;;;4.96;42.00;99641.56;10340740;28;20239;-69
2023/04/06 04:50:26;;;;;;;13.93;11.47;;;;;;;4.03;43.15;99679.53;10342078;28;20315;-70
2023/04/06 04:55:29;;;;;;;13.53;10.63;;;;;;;3.62;42.87;99672.81;10345816;28;20211;-69
2023/04/06 05:05:33;;;;;;;15.73;10.77;;;;;;;1.06;47.86;99739.63;10461987;27;20853;-68
2023/04/06 05:10:35;;;;;;;12.03;10.40;;;;;;;1.59;47.41;99673.78;10423859;28;20443;-68
2023/04/06 05:15:40;;;;;;;15.37;11.30;;;;;;;1.80;47.11;99668.50;10431862;28;20224;-68
2023/04/06 05:20:42;;;;;;;14.13;12.00;;;;;;;2.34;46.48;99671.78;10414815;28;20289;-68
2023/04/06 05:25:44;;;;;;;20.83;15.30;;;;;;;2.51;46.07;99635.16;10416596;28;20213;-68
2023/04/06 05:30:46;;;;;;;20.30;15.17;;;;;;;2.48;45.95;99667.13;10408569;28;20271;-68
2023/04/06 05:35:47;;;;;;;20.50;14.93;;;;;;;3.21;44.62;99665.03;10413471;28;20229;-68
2023/04/06 05:40:49;;;;;;;14.50;12.30;;;;;;;2.82;44.71;99744.28;10420387;28;20231;-69
2023/04/06 05:45:51;;;;;;;17.70;12.03;;;;;;;3.86;43.50;99682.09;10410067;28;20219;-68
2023/04/06 05:50:53;;;;;;;18.33;14.70;;;;;;;5.00;42.88;99616.41;10415161;28;20235;-68
2023/04/06 05:55:55;;;;;;;17.97;12.50;;;;;;;5.40;41.95;99641.63;10410605;28;20217;-68
2023/04/06 06:01:00;;;;;;;18.37;15.00;;;;;;;4.15;44.12;99725.22;10413791;28;20627;-68
2023/04/06 06:06:03;;;;;;;14.30;11.67;;;;;;;2.78;45.04;99823.97;10418766;28;20366;-68
2023/04/06 06:11:06;;;;;;;15.37;13.10;;;;;;;3.10;45.02;99768.28;10416948;28;20278;-68
2023/04/06 06:16:08;;;;;;;15.00;12.03;;;;;;;3.81;44.22;99703.69;10387812;28;20213;-68
2023/04/06 06:21:11;;;;;;;13.70;10.50;;;;;;;2.94;46.07;99768.81;10384736;28;20824;-68
2023/04/06 06:26:13;;;;;;;11.97;10.00;;;;;;;5.02;43.55;99634.81;10389340;28;20453;-69
2023/04/06 06:31:16;;;;;;;11.50;9.03;;;;;;;2.87;46.72;99781.72;10388514;28;20255;-68
2023/04/06 06:36:18;;;;;;;12.27;10.07;;;;;;;3.99;45.52;99701.16;10386225;28;22133;-68
2023/04/06 06:41:19;;;;;;;14.57;11.37;;;;;;;4.66;45.54;99662.16;10391024;28;20225;-68
2023/04/06 06:46:21;;;;;;;13.70;10.27;;;;;;;4.51;44.11;99745.78;10387056;28;20219;-69
2023/04/06 06:51:23;;;;;;;12.80;10.03;;;;;;;4.70;44.23;99727.13;10383141;28;20227;-68
2023/04/06 06:56:26;;;;;;;13.63;11.10;;;;;;;4.75;44.51;99726.69;10382557;28;20211;-68
2023/04/06 07:01:28;;;;;;;13.90;10.10;;;;;;;4.93;43.80;99735.50;10383812;28;20236;-68
2023/04/06 07:06:30;;;;;;;12.57;10.33;;;;;;;3.89;45.75;99791.19;10383716;28;20302;-69
2023/04/06 07:11:31;;;;;;;10.47;9.00;;;;;;;4.04;46.55;99773.06;10381035;28;20226;-69
2023/04/06 07:16:33;;;;;;;10.80;9.13;;;;;;;5.27;44.57;99686.28;10380984;28;20259;-69
2023/04/06 07:21:35;;;;;;;12.57;8.50;;;;;;;4.09;45.17;99801.78;10381815;28;20231;-69
2023/04/06 07:26:37;;;;;;;10.07;8.83;;;;;;;4.34;45.64;99773.84;10386777;28;20295;-69
2023/04/06 07:31:38;;;;;;;10.67;9.03;;;;;;;5.65;44.27;99687.78;10382226;28;20707;-72
2023/04/06 07:36:40;;;;;;;9.27;7.90;;;;;;;5.21;44.20;99738.13;10388637;28;20262;-74
2023/04/06 07:41:42;;;;;;;12.43;8.80;;;;;;;5.87;42.52;99758.16;10369001;28;20730;-69
2023/04/06 07:46:43;;;;;;;9.13;7.70;;;;;;;5.44;42.97;99794.25;10381070;28;20615;-69
2023/04/06 07:51:45;;;;;;;8.67;7.73;;;;;;;5.07;43.50;99828.84;10374111;28;20222;-69
2023/04/06 07:56:47;;;;;;;14.03;8.70;;;;;;;5.76;42.39;99800.06;10378909;28;20213;-69
2023/04/06 08:01:49;;;;;;;10.47;8.53;;;;;;;6.25;42.45;99793.28;10384606;28;20244;-69
2023/04/06 08:06:51;;;;;;;8.87;7.30;;;;;;;5.94;41.98;99824.78;10380785;28;20231;-69
2023/04/06 08:11:53;;;;;;;9.40;7.20;;;;;;;5.48;42.20;99874.41;10382426;28;20233;-69
2023/04/06 08:16:55;;;;;;;9.70;7.60;;;;;;;6.98;41.38;99801.84;10382507;28;20427;-69
2023/04/06 08:21:57;;;;;;;8.83;7.93;;;;;;;6.65;41.93;99811.47;10379416;28;20239;-69
2023/04/06 08:26:58;;;;;;;8.57;7.53;;;;;;;7.36;40.63;99786.34;10376606;28;20212;-69
2023/04/06 08:32:03;;;;;;;8.03;7.00;;;;;;;7.73;40.44;99793.06;10378830;28;20604;-70
2023/04/06 08:37:05;;;;;;;11.07;7.17;;;;;;;7.18;40.83;99834.38;10376488;28;20572;-73
2023/04/06 08:42:16;;;;;;;9.50;7.50;;;;;;;7.71;40.55;99816.34;10374864;28;20236;-72
2023/04/06 08:47:18;;;;;;;11.23;7.53;;;;;;;8.49;39.49;99815.03;10384584;28;20327;-72
2023/04/06 08:52:22;;;;;;;9.03;7.17;;;;;;;8.25;39.27;99837.19;10373097;28;20255;-72
2023/04/06 08:57:25;;;;;;;8.10;6.80;;;;;;;9.01;38.76;99813.69;10376518;28;20209;-72
2023/04/06 09:02:27;;;;;;;8.17;6.83;;;;;;;8.94;38.19;99829.56;10373606;28;20239;-72
2023/04/06 09:07:30;;;;;;;7.70;6.30;;;;;;;8.20;38.39;99864.38;10379327;28;20349;-72
2023/04/06 09:12:33;;;;;;;7.63;6.20;;;;;;;8.79;38.00;99849.94;10385945;28;20472;-72
2023/04/06 09:17:36;;;;;;;7.73;6.73;;;;;;;9.23;37.05;99828.16;10375141;28;20208;-72
2023/04/06 09:22:39;;;;;;;9.37;6.20;;;;;;;10.62;36.29;99828.09;10382221;28;20241;-72
2023/04/06 09:27:41;;;;;;;8.13;6.40;;;;;;;9.66;37.28;99854.44;10388133;28;20251;-72
2023/04/06 09:32:49;;;;;;;7.83;6.67;;;;;;;9.43;36.91;99838.38;10381655;28;20438;-72
2023/04/06 09:37:53;;;;;;;7.83;6.63;;;;;;;9.76;36.38;99829.13;10383620;28;20243;-72
2023/04/06 09:42:57;;;;;;;7.63;6.17;;;;;;;9.28;36.72;99865.84;10377187;28;20233;-73
2023/04/06 09:47:59;;;;;;;9.33;6.20;;;;;;;10.45;35.95;99822.09;10380460;28;20204;-72
2023/04/06 09:53:03;;;;;;;9.57;7.27;;;;;;;11.40;35.33;99767.72;10385438;28;20255;-70
2023/04/06 09:58:09;;;;;;;12.47;6.80;;;;;;;11.67;35.91;99780.59;10384622;28;20260;-70
2023/04/06 10:03:16;;;;;;;7.87;6.30;;;;;;;11.21;36.22;99781.72;10389809;28;20232;-70
2023/04/06 10:08:20;;;;;;;10.27;7.10;;;;;;;11.62;35.42;99799.88;10391781;28;20207;-70
2023/04/06 10:13:24;;;;;;;9.00;6.90;;;;;;;10.81;35.85;99806.16;10385784;28;20228;-70
2023/04/06 10:18:26;;;;;;;8.33;6.80;;;;;;;10.96;35.77;99784.72;10390114;28;20841;-70
2023/04/06 10:24:00;;;;;;;9.30;7.03;;;;;;;12.07;35.07;99805.06;10372588;28;20809;-71
2023/04/06 10:29:03;;;;;;;9.33;7.23;;;;;;;11.43;34.27;99770.00;10374990;28;20237;-73
2023/04/06 10:34:05;;;;;;;8.60;6.80;;;;;;;12.36;34.26;99793.31;10384896;28;20287;-74
2023/04/06 10:39:08;;;;;;;9.20;6.47;;;;;;;12.71;34.21;99764.66;10392178;28;20653;-73
2023/04/06 10:44:20;;;;;;;10.17;7.27;;;;;;;12.54;34.39;99761.47;10390489;28;20218;-72
2023/04/06 10:49:22;;;;;;;7.90;6.60;;;;;;;10.81;33.62;99792.75;10386352;28;20246;-73
2023/04/06 10:54:28;;;;;;;8.43;7.30;;;;;;;12.82;32.48;99724.81;10389322;28;20212;-73
2023/04/06 10:59:29;;;;;;;9.47;7.43;;;;;;;12.48;33.90;99708.56;10391517;28;20247;-73
2023/04/06 11:06:33;;;;;;;8.13;6.87;;;;;;;11.18;33.83;99753.47;10454865;28;21191;-73
2023/04/06 11:11:39;;;;;;;7.43;5.93;;;;;;;11.10;33.73;99819.69;10446723;28;20495;-73
2023/04/06 11:16:41;;;;;;;7.47;5.63;;;;;;;10.96;32.91;99771.34;10443798;28;20208;-73
2023/04/06 11:21:48;;;;;;;5.67;4.80;;;;;;;11.37;32.33;99778.84;10451109;28;20231;-73
2023/04/06 11:26:54;;;;;;;6.33;5.07;;;;;;;9.73;31.04;99754.66;10447897;28;21024;-73
2023/04/06 11:32:02;;;;;;;7.50;5.33;;;;;;;11.68;31.69;99779.56;10449085;28;20343;-73
2023/04/06 11:37:08;;;;;;;6.27;5.63;;;;;;;12.22;31.56;99760.22;10436079;28;20659;-73
2023/04/06 11:42:10;;;;;;;7.87;5.97;;;;;;;11.49;31.27;99779.16;10438552;28;20242;-73
2023/04/06 11:47:12;;;;;;;6.37;4.70;;;;;;;11.78;30.34;99762.13;10437622;28;20207;-73
2023/04/06 11:52:24;;;;;;;6.40;5.00;;;;;;;12.09;31.19;99766.28;10448323;28;20666;-73
2023/04/06 11:57:27;;;;;;;5.40;4.87;;;;;;;11.59;30.10;99782.34;10445253;28;20298;-73
2023/04/06 12:02:29;;;;;;;5.80;4.80;;;;;;;13.01;30.41;99739.34;10449115;28;20224;-73
2023/04/06 12:07:31;;;;;;;8.33;5.20;;;;;;;12.84;30.14;99737.03;10443489;28;20212;-73
2023/04/06 12:12:33;;;;;;;8.07;5.27;;;;;;;13.22;28.88;99717.72;10447010;28;20220;-73
2023/04/06 12:17:36;;;;;;;6.30;4.50;;;;;;;13.54;29.56;99725.25;10422527;28;20219;-73
2023/04/06 12:22:38;;;;;;;7.70;6.20;;;;;;;12.02;28.43;99727.88;10412574;28;20236;-74
2023/04/06 12:27:40;;;;;;;6.13;5.30;;;;;;;13.60;28.66;99700.25;10410722;28;20575;-73
2023/04/06 12:32:41;;;;;;;8.53;5.10;;;;;;;13.03;29.57;99715.81;10428490;28;20238;-73
2023/04/06 12:37:43;;;;;;;6.77;5.40;;;;;;;13.63;29.51;99687.22;10417671;28;20216;-73
2023/04/06 12:42:46;;;;;;;8.20;6.20;;;;;;;12.91;29.68;99678.00;10426476;28;20278;-73
2023/04/06 12:47:47;;;;;;;9.33;5.70;;;;;;;12.65;29.03;99729.72;10418456;28;20220;-71
2023/04/06 12:52:49;;;;;;;11.77;6.23;;;;;;;12.18;29.33;99673.94;10417029;28;20452;-73
2023/04/06 12:57:51;;;;;;;10.43;6.53;;;;;;;14.36;29.88;99664.75;10416474;28;20216;-73
2023/04/06 13:02:52;;;;;;;6.57;5.60;;;;;;;13.25;28.69;99687.75;10418059;28;20240;-73
2023/04/06 13:07:54;;;;;;;6.83;5.67;;;;;;;12.97;30.36;99655.66;10415443;28;20212;-73
2023/04/06 13:12:56;;;;;;;7.67;5.33;;;;;;;13.75;30.41;99638.16;10408685;28;20220;-72
2023/04/06 13:17:57;;;;;;;6.00;5.33;;;;;;;13.53;30.06;99589.16;10405578;28;20209;-72
2023/04/06 13:22:59;;;;;;;8.97;6.37;;;;;;;13.33;30.19;99633.03;10416983;28;20714;-72
2023/04/06 13:28:01;;;;;;;7.53;5.57;;;;;;;13.37;30.40;99609.25;10417726;28;20212;-71
2023/04/06 13:33:04;;;;;;;7.87;6.07;;;;;;;12.93;30.74;99647.19;10409961;28;20228;-71
2023/04/06 13:38:06;;;;;;;7.13;5.50;;;;;;;12.84;29.86;99677.13;10408961;28;20627;-72
2023/04/06 13:43:08;;;;;;;7.90;5.87;;;;;;;13.35;29.84;99581.75;10412844;28;20607;-71
2023/04/06 13:48:09;;;;;;;9.37;6.77;;;;;;;14.16;30.56;99594.84;10418526;28;20269;-71
2023/04/06 13:53:11;;;;;;;10.93;6.20;;;;;;;14.33;30.43;99597.06;10410625;28;20643;-71
2023/04/06 13:58:13;;;;;;;7.30;6.00;;;;;;;13.64;30.98;99608.19;10406325;28;20683;-72
2023/04/06 14:03:15;;;;;;;10.27;5.80;;;;;;;13.68;30.61;99573.63;10414357;28;20236;-72
2023/04/06 14:08:17;;;;;;;10.20;6.63;;;;;;;13.72;30.76;99552.56;10407909;28;20706;-71
2023/04/06 14:13:19;;;;;;;8.17;5.97;;;;;;;12.75;30.65;99612.03;10416165;28;20249;-72
2023/04/06 14:18:22;;;;;;;8.83;6.20;;;;;;;11.93;31.33;99594.97;10415294;28;20215;-71
2023/04/06 14:23:27;;;;;;;8.33;6.33;;;;;;;12.94;30.59;99629.25;10412786;28;20709;-72
2023/04/06 14:28:29;;;;;;;9.53;6.00;;;;;;;12.83;31.35;99632.50;10418373;28;20215;-71
2023/04/06 14:33:31;;;;;;;7.67;6.03;;;;;;;12.74;30.42;99581.69;10412338;28;20694;-71
2023/04/06 14:38:33;;;;;;;7.90;6.17;;;;;;;13.65;31.78;99520.31;10407981;28;20314;-71
2023/04/06 14:43:35;;;;;;;8.47;6.13;;;;;;;13.06;30.98;99605.28;10405993;28;20286;-72
2023/04/06 14:48:36;;;;;;;11.80;6.60;;;;;;;13.73;31.47;99519.22;10422458;28;20211;-72
2023/04/06 14:53:38;;;;;;;9.13;6.83;;;;;;;13.51;31.45;99557.13;10410456;28;20212;-72
2023/04/06 14:58:40;;;;;;;8.30;6.30;;;;;;;12.61;32.34;99565.56;10410824;28;20661;-71
2023/04/06 15:03:41;;;;;;;9.83;6.20;;;;;;;12.46;32.26;99548.75;10407072;28;20228;-71
2023/04/06 15:08:44;;;;;;;11.47;6.63;;;;;;;13.73;31.23;99530.00;10417030;28;20805;-72
2023/04/06 15:13:45;;;;;;;8.60;6.70;;;;;;;13.89;31.79;99493.75;10413412;28;20241;-72
2023/04/06 15:18:48;;;;;;;9.47;6.97;;;;;;;12.50;32.51;99552.72;10409395;28;20511;-72
2023/04/06 15:23:51;;;;;;;14.57;7.27;;;;;;;12.80;32.50;99558.56;10406611;28;20234;-72
2023/04/06 15:28:52;;;;;;;10.97;6.47;;;;;;;12.01;32.90;99503.63;10406532;28;20230;-71
2023/04/06 15:33:55;;;;;;;8.67;6.03;;;;;;;12.86;32.74;99541.63;10417433;28;20779;-72
2023/04/06 15:39:00;;;;;;;6.33;5.30;;;;;;;11.89;33.36;99556.19;10411589;28;20217;-71
2023/04/06 15:44:02;;;;;;;8.70;6.20;;;;;;;11.93;34.19;99576.19;10408604;28;20368;-71
2023/04/06 15:49:03;;;;;;;7.10;5.40;;;;;;;10.90;34.85;99515.13;10414825;28;20596;-72
2023/04/06 15:54:05;;;;;;;6.63;5.20;;;;;;;12.10;33.58;99558.75;10411204;28;20204;-71
2023/04/06 15:59:07;;;;;;;7.10;5.63;;;;;;;13.05;33.45;99523.84;10414380;28;20236;-71
2023/04/06 16:04:10;;;;;;;8.13;5.57;;;;;;;11.87;34.53;99542.97;10409717;28;20244;-71
2023/04/06 16:09:12;;;;;;;12.43;5.60;;;;;;;11.47;35.42;99534.66;10416495;28;20707;-71
2023/04/06 16:14:13;;;;;;;9.00;6.03;;;;;;;12.13;35.43;99563.72;10413588;28;20944;-71
2023/04/06 16:19:15;;;;;;;7.13;6.20;;;;;;;11.78;35.34;99571.81;10422720;28;20849;-71
2023/04/06 16:24:17;;;;;;;7.17;5.83;;;;;;;10.51;35.60;99514.50;10416035;28;20538;-71
2023/04/06 16:29:18;;;;;;;9.33;6.20;;;;;;;10.49;36.63;99529.09;10424149;28;20231;-72
2023/04/06 16:34:20;;;;;;;9.93;6.37;;;;;;;11.44;36.51;99569.91;10412125;28;20203;-71
2023/04/06 16:39:21;;;;;;;9.63;6.10;;;;;;;12.16;35.16;99515.06;10413251;28;20242;-72
2023/04/06 16:44:23;;;;;;;8.27;6.27;;;;;;;12.11;35.31;99527.38;10414515;28;20242;-71
2023/04/06 16:49:25;;;;;;;8.97;6.40;;;;;;;12.17;35.58;99548.88;10409705;28;20235;-71
2023/04/06 16:54:26;;;;;;;8.07;6.03;;;;;;;11.66;35.34;99551.09;10417307;28;20372;-71
2023/04/06 16:59:31;;;;;;;9.00;6.17;;;;;;;12.62;34.86;99508.16;10417704;28;20578;-70
2023/04/06 17:04:33;;;;;;;8.60;6.70;;;;;;;12.46;35.13;99533.47;10416409;28;20263;-71
2023/04/06 17:09:34;;;;;;;7.57;6.33;;;;;;;12.81;35.35;99516.44;10413396;28;20228;-71
2023/04/06 17:14:36;;;;;;;7.10;5.87;;;;;;;12.83;35.54;99527.78;10418507;28;20300;-71
2023/04/06 17:19:38;;;;;;;7.90;6.30;;;;;;;12.52;35.91;99543.44;10397373;28;20338;-72
2023/04/06 17:24:40;;;;;;;9.43;7.23;;;;;;;11.91;36.71;99554.97;10417739;28;20717;-71
2023/04/06 17:29:41;;;;;;;7.70;6.17;;;;;;;11.33;37.47;99565.91;10413772;28;20338;-71
2023/04/06 17:34:43;;;;;;;9.10;6.93;;;;;;;12.54;37.49;99527.97;10418953;28;20228;-71
2023/04/06 17:39:45;;;;;;;9.33;7.33;;;;;;;11.43;39.19;99552.16;10407633;28;20233;-72
2023/04/06 17:44:48;;;;;;;8.40;6.87;;;;;;;11.27;39.63;99542.56;10419489;28;20232;-71
2023/04/06 17:49:53;;;;;;;11.80;7.83;;;;;;;11.32;39.59;99529.44;10418626;28;20762;-72
2023/04/06 17:54:55;;;;;;;9.00;6.20;;;;;;;12.82;38.29;99518.91;10410257;28;20691;-71
2023/04/06 17:59:57;;;;;;;8.00;7.20;;;;;;;12.27;38.94;99528.91;10401494;28;20224;-71
2023/04/06 18:04:58;;;;;;;8.30;6.87;;;;;;;11.57;40.56;99543.19;10417806;28;20361;-70
2023/04/06 18:10:00;;;;;;;6.87;5.43;;;;;;;11.82;40.65;99548.09;10425182;28;20324;-71
2023/04/06 18:15:03;;;;;;;8.47;6.60;;;;;;;11.84;40.55;99567.50;10421509;28;20200;-71
2023/04/06 18:20:07;;;;;;;10.03;7.27;;;;;;;12.39;39.80;99538.00;10412828;28;20232;-71
2023/04/06 18:25:13;;;;;;;7.97;6.37;;;;;;;10.98;41.59;99546.25;10414526;28;20318;-71
2023/04/06 18:30:16;;;;;;;7.20;5.93;;;;;;;10.83;41.20;99541.81;10413172;28;20781;-71
2023/04/06 18:35:18;;;;;;;8.07;6.43;;;;;;;11.36;41.42;99544.09;10415052;28;20291;-71
2023/04/06 18:40:36;;;;;;;6.70;5.97;;;;;;;9.91;43.18;99497.78;10404711;28;20235;-70
2023/04/06 18:45:38;;;;;;;5.93;5.33;;;;;;;12.18;40.74;99480.81;10408462;28;20223;-71
2023/04/06 18:50:40;;;;;;;10.40;5.83;;;;;;;11.00;41.64;99536.16;10409661;28;20716;-70
2023/04/06 18:55:44;;;;;;;6.87;5.33;;;;;;;12.49;40.95;99500.91;10403954;28;20205;-71
2023/04/06 19:00:45;;;;;;;6.00;5.37;;;;;;;13.17;40.67;99507.94;10410393;28;20221;-71
2023/04/06 19:05:47;;;;;;;6.60;5.83;;;;;;;13.90;39.39;99535.72;10412659;28;20774;-71
2023/04/06 19:10:48;;;;;;;7.20;6.43;;;;;;;13.42;40.96;99528.81;10414375;28;20231;-71
2023/04/06 19:15:50;;;;;;;9.57;6.70;;;;;;;13.16;41.22;99522.44;10402280;28;20236;-71
2023/04/06 19:20:53;;;;;;;6.73;6.03;;;;;;;10.24;45.96;99558.03;10415096;28;20661;-71
2023/04/06 19:25:55;;;;;;;6.43;5.83;;;;;;;11.04;45.15;99613.25;10419221;28;20286;-71
2023/04/06 19:30:57;;;;;;;7.87;5.80;;;;;;;11.57;44.69;99553.06;10425816;28;20315;-70
2023/04/06 19:35:59;;;;;;;5.97;5.37;;;;;;;9.21;47.45;99483.03;10414280;28;20608;-70
2023/04/06 19:41:01;;;;;;;6.73;5.60;;;;;;;10.51;46.58;99580.53;10415186;28;20297;-71
2023/04/06 19:46:03;;;;;;;6.27;5.67;;;;;;;11.00;46.42;99579.88;10423657;28;20595;-70
2023/04/06 19:51:05;;;;;;;7.90;5.93;;;;;;;10.42;46.72;99558.44;10408403;28;20279;-71
2023/04/06 19:56:09;;;;;;;11.43;7.63;;;;;;;9.66;47.07;99510.59;10421077;28;20655;-71
2023/04/06 20:01:10;;;;;;;12.80;10.77;;;;;;;9.73;48.05;99583.66;10419278;28;20220;-71
2023/04/06 20:06:12;;;;;;;8.57;7.70;;;;;;;11.89;44.61;99508.72;10421136;28;20351;-71
2023/04/06 20:11:15;;;;;;;9.93;6.63;;;;;;;10.44;46.58;99601.06;10418439;28;20227;-71
2023/04/06 20:16:16;;;;;;;9.40;6.73;;;;;;;11.44;44.43;99519.81;10412620;28;20261;-72
2023/04/06 20:21:18;;;;;;;8.43;5.67;;;;;;;10.86;46.29;99568.19;10409200;28;20231;-72
2023/04/06 20:26:20;;;;;;;7.07;6.37;;;;;;;10.41;46.46;99572.84;10411529;28;20239;-72
2023/04/06 20:31:26;;;;;;;7.37;5.57;;;;;;;10.24;47.40;99582.94;10410418;28;20738;-72
2023/04/06 20:36:31;;;;;;;7.23;6.07;;;;;;;9.96;47.17;99554.19;10410612;28;20647;-71
2023/04/06 20:41:32;;;;;;;7.90;6.10;;;;;;;11.13;45.66;99514.84;10422693;28;20243;-72
2023/04/06 20:46:34;;;;;;;9.30;5.77;;;;;;;9.33;48.10;99528.81;10417689;28;20441;-72
2023/04/06 20:51:36;;;;;;;8.07;6.97;;;;;;;10.01;47.58;99563.53;10418574;28;20698;-71
2023/04/06 20:56:38;;;;;;;8.53;6.07;;;;;;;10.39;46.69;99526.72;10419844;28;20214;-72
2023/04/06 21:01:40;;;;;;;9.93;8.30;;;;;;;10.99;46.49;99502.41;10404732;28;20221;-71
2023/04/06 21:06:41;;;;;;;8.70;7.37;;;;;;;12.26;44.28;99513.81;10424732;28;20644;-71
2023/04/06 21:11:43;;;;;;;9.07;7.03;;;;;;;13.87;42.39;99593.47;10421215;28;20605;-71
2023/04/06 21:16:45;;;;;;;8.40;7.03;;;;;;;14.56;40.87;99591.13;10412806;28;20397;-70
2023/04/06 21:21:46;;;;;;;8.33;7.33;;;;;;;14.04;40.90;99551.59;10417700;28;20276;-71
2023/04/06 21:26:48;;;;;;;7.83;6.43;;;;;;;13.14;41.83;99505.66;10420932;28;20246;-71
2023/04/06 21:31:50;;;;;;;8.17;7.17;;;;;;;11.24;45.45;99593.88;10407301;28;20587;-71
2023/04/06 21:36:51;;;;;;;7.93;7.00;;;;;;;11.34;45.54;99604.22;10415511;28;20371;-70
2023/04/06 21:41:53;;;;;;;9.23;7.00;;;;;;;11.30;45.89;99594.94;10403402;28;20243;-70
2023/04/06 21:46:55;;;;;;;7.43;6.63;;;;;;;9.99;47.94;99578.88;10412260;28;20258;-71
2023/04/06 21:51:56;;;;;;;9.90;7.67;;;;;;;9.92;47.89;99576.97;10404570;28;20791;-70
2023/04/06 21:56:58;;;;;;;9.10;7.43;;;;;;;11.60;45.59;99552.69;10413013;28;20306;-72
2023/04/06 22:02:00;;;;;;;8.83;7.30;;;;;;;12.58;44.04;99512.25;10417014;28;20239;-73
2023/04/06 22:07:02;;;;;;;9.87;7.33;;;;;;;14.56;40.96;99558.81;10415286;28;20256;-72
2023/04/06 22:12:04;;;;;;;9.13;7.97;;;;;;;13.15;41.89;99485.84;10408596;28;20269;-72
2023/04/06 22:17:05;;;;;;;8.30;7.30;;;;;;;12.97;43.11;99537.50;10407652;28;21085;-72
2023/04/06 22:22:07;;;;;;;8.90;7.77;;;;;;;14.36;40.97;99559.78;10414391;28;20446;-71
2023/04/06 22:27:09;;;;;;;7.90;6.80;;;;;;;14.80;40.40;99577.97;10399773;28;20237;-71
2023/04/06 22:32:10;;;;;;;7.90;7.10;;;;;;;13.72;41.51;99514.91;10410792;28;20236;-71
2023/04/06 22:37:12;;;;;;;8.43;7.17;;;;;;;12.40;44.03;99577.25;10418667;28;20251;-71
2023/04/06 22:42:14;;;;;;;11.80;9.37;;;;;;;11.64;44.42;99532.53;10412585;28;20704;-72
2023/04/06 22:47:15;;;;;;;11.83;9.77;;;;;;;11.70;45.41;99560.41;10415402;28;20227;-72
2023/04/06 22:52:17;;;;;;;11.30;8.27;;;;;;;11.77;44.58;99554.03;10406609;28;20504;-72
2023/04/06 22:57:21;;;;;;;10.60;7.83;;;;;;;10.58;46.70;99546.69;10412165;28;20447;-71
2023/04/06 23:02:22;;;;;;;10.90;7.33;;;;;;;12.03;44.11;99531.09;10401587;28;20242;-72
2023/04/06 23:07:24;;;;;;;8.70;6.80;;;;;;;11.37;45.73;99575.22;10411881;28;20801;-72
2023/04/06 23:12:26;;;;;;;8.67;7.50;;;;;;;11.15;45.35;99552.97;10412620;28;20235;-72
2023/04/06 23:17:28;;;;;;;9.77;6.77;;;;;;;11.79;44.10;99502.91;10413167;28;20301;-71
2023/04/06 23:22:30;;;;;;;7.60;6.80;;;;;;;11.62;44.42;99532.75;10410756;28;20779;-71
2023/04/06 23:27:31;;;;;;;7.30;6.50;;;;;;;9.13;47.38;99502.66;10405049;28;20223;-72
2023/04/06 23:32:33;;;;;;;7.70;6.90;;;;;;;10.16;46.50;99569.66;10419865;28;20362;-71